createdAt,value
2018-04-22T00:02:17.134Z,60.10
2018-04-22T00:04:45.979Z,61.80
2018-04-22T00:07:14.769Z,60.40
2018-04-22T00:09:42.682Z,60.40
2018-04-22T00:12:10.902Z,60.30
2018-04-22T00:14:39.955Z,59.50
2018-04-22T00:17:08.236Z,59.50
2018-04-22T00:19:36.206Z,60.40
2018-04-22T00:22:04.970Z,63.30
2018-04-22T00:24:33.164Z,63.20
2018-04-22T00:27:01.402Z,62.10
2018-04-22T00:29:29.642Z,62.60
2018-04-22T00:31:57.892Z,60.60
2018-04-22T00:34:26.127Z,59.70
2018-04-22T00:36:54.369Z,60.60
2018-04-22T00:39:22.621Z,62.00
2018-04-22T00:41:50.854Z,63.00
2018-04-22T00:44:19.100Z,62.70
2018-04-22T00:46:47.319Z,64.50
2018-04-22T00:49:15.385Z,64.30
2018-04-22T00:51:43.628Z,65.20
2018-04-22T00:54:21.548Z,66.10
2018-04-22T00:56:49.713Z,67.40
2018-04-22T00:59:17.757Z,66.70
2018-04-22T01:01:46.034Z,67.80
2018-04-22T01:04:14.283Z,67.70
2018-04-22T01:06:42.519Z,67.30
2018-04-22T01:09:10.762Z,67.10
2018-04-22T01:11:38.942Z,67.10
2018-04-22T01:14:07.247Z,66.30
2018-04-22T01:16:35.694Z,66.60
2018-04-22T01:19:03.927Z,65.20
2018-04-22T01:21:32.045Z,66.40
2018-04-22T01:24:00.219Z,65.80
2018-04-22T01:26:29.273Z,67.40
2018-04-22T01:28:57.440Z,67.10
2018-04-22T01:31:26.714Z,67.80
2018-04-22T01:33:54.701Z,68.50
2018-04-22T01:36:23.599Z,69.40
2018-04-22T01:38:51.835Z,69.40
2018-04-22T01:41:20.029Z,68.80
2018-04-22T01:43:48.103Z,69.10
2018-04-22T01:46:17.154Z,70.80
2018-04-22T01:48:45.769Z,70.70
2018-04-22T01:51:13.794Z,70.40
2018-04-22T01:53:42.077Z,70.20
2018-04-22T01:56:10.183Z,71.00
2018-04-22T01:58:38.364Z,70.90
2018-04-22T02:01:06.517Z,70.40
2018-04-22T02:03:34.455Z,70.50
2018-04-22T02:06:02.701Z,71.40
2018-04-22T02:08:30.949Z,72.20
2018-04-22T02:10:59.085Z,72.50
2018-04-22T02:13:27.179Z,73.90
2018-04-22T02:15:55.478Z,74.70
2018-04-22T02:18:23.720Z,73.30
2018-04-22T02:20:53.311Z,73.50
2018-04-22T02:23:21.482Z,73.50
2018-04-22T02:25:49.523Z,73.90
2018-04-22T02:28:17.814Z,73.10
2018-04-22T02:30:46.112Z,73.80
2018-04-22T02:33:14.157Z,74.90
2018-04-22T02:35:42.368Z,74.60
2018-04-22T02:38:10.639Z,74.40
2018-04-22T02:40:38.886Z,74.40
2018-04-22T02:43:07.046Z,75.40
2018-04-22T02:45:36.108Z,75.80
2018-04-22T02:48:04.395Z,75.80
2018-04-22T02:50:32.637Z,77.90
2018-04-22T02:53:01.276Z,78.90
2018-04-22T02:55:29.500Z,79.20
2018-04-22T02:57:57.755Z,79.30
2018-04-22T03:00:26.789Z,78.80
2018-04-22T03:02:54.983Z,78.80
2018-04-22T03:05:23.242Z,83.30
2018-04-22T03:07:51.514Z,82.40
2018-04-22T03:10:19.755Z,80.10
2018-04-22T03:12:47.998Z,82.30
2018-04-22T03:15:16.963Z,81.00
2018-04-22T03:17:45.267Z,80.90
2018-04-22T03:20:13.513Z,82.50
2018-04-22T03:22:41.751Z,79.60
2018-04-22T03:25:10.191Z,77.80
2018-04-22T03:27:38.346Z,78.80
2018-04-22T03:30:07.460Z,79.90
2018-04-22T03:32:35.705Z,79.80
2018-04-22T03:35:04.147Z,80.70
2018-04-22T03:37:32.341Z,81.40
2018-04-22T03:40:00.593Z,82.50
2018-04-22T03:42:28.869Z,81.70
2018-04-22T03:44:57.114Z,81.40
2018-04-22T03:47:25.355Z,80.40
2018-04-22T03:49:54.382Z,80.00
2018-04-22T03:52:22.571Z,79.90
2018-04-22T03:54:50.878Z,82.90
2018-04-22T03:57:19.257Z,81.80
2018-04-22T03:59:47.531Z,81.20
2018-04-22T04:02:15.792Z,81.90
2018-04-22T04:04:44.044Z,80.30
2018-04-22T04:07:12.201Z,79.00
2018-04-22T04:09:41.307Z,77.20
2018-04-22T04:12:09.483Z,77.20
2018-04-22T04:14:37.792Z,77.70
2018-04-22T04:17:06.033Z,76.00
2018-04-22T04:22:53.237Z,76.20
2018-04-22T04:25:42.915Z,77.40
2018-04-22T04:28:10.977Z,77.40
2018-04-22T04:30:39.106Z,77.00
2018-04-22T04:33:08.171Z,80.90
2018-04-22T04:35:36.473Z,80.80
2018-04-22T04:38:04.605Z,79.40
2018-04-22T04:40:32.923Z,78.40
2018-04-22T04:43:01.202Z,80.90
2018-04-22T04:45:29.445Z,78.30
2018-04-22T04:47:57.688Z,79.90
2018-04-22T04:50:25.846Z,81.80
2018-04-22T04:52:54.957Z,80.00
2018-04-22T04:55:23.125Z,79.90
2018-04-22T04:57:51.392Z,79.20
2018-04-22T05:00:19.739Z,81.80
2018-04-22T05:02:48.123Z,79.50
2018-04-22T05:05:16.294Z,81.20
2018-04-22T05:07:44.587Z,83.50
2018-04-22T05:10:12.851Z,83.50
2018-04-22T05:12:41.101Z,83.30
2018-04-22T05:15:09.270Z,83.80
2018-04-22T05:17:37.532Z,81.40
2018-04-22T05:20:05.824Z,81.70
2018-04-22T05:22:34.062Z,80.70
2018-04-22T05:25:02.303Z,79.60
2018-04-22T05:27:30.555Z,80.30
2018-04-22T05:29:58.790Z,81.20
2018-04-22T05:32:27.228Z,84.00
2018-04-22T05:34:55.426Z,83.70
2018-04-22T05:37:23.714Z,80.60
2018-04-22T05:39:51.768Z,81.00
2018-04-22T05:42:20.000Z,81.20
2018-04-22T05:44:48.219Z,81.80
2018-04-22T05:47:16.485Z,81.20
2018-04-22T05:49:44.729Z,80.80
2018-04-22T05:52:12.975Z,80.60
2018-04-22T05:54:41.141Z,80.40
2018-04-22T05:57:09.455Z,80.00
2018-04-22T05:59:37.696Z,80.20
2018-04-22T06:02:05.948Z,80.80
2018-04-22T06:04:34.379Z,80.50
2018-04-22T06:07:02.621Z,81.40
2018-04-22T06:09:30.857Z,81.90
2018-04-22T06:11:59.049Z,80.30
2018-04-22T06:14:27.268Z,80.00
2018-04-22T06:16:56.110Z,81.10
2018-04-22T06:19:24.951Z,81.20
2018-04-22T06:21:52.998Z,81.20
2018-04-22T06:24:21.162Z,81.90
2018-04-22T06:26:49.337Z,82.10
2018-04-22T06:29:17.570Z,81.70
2018-04-22T06:31:45.824Z,81.80
2018-04-22T06:34:15.639Z,81.80
2018-04-22T06:36:44.299Z,81.80
2018-04-22T06:39:12.515Z,82.20
2018-04-22T06:41:40.631Z,82.50
2018-04-22T06:44:08.585Z,82.80
2018-04-22T06:46:36.858Z,82.70
2018-04-22T06:49:04.982Z,82.60
2018-04-22T06:51:33.123Z,82.30
2018-04-22T06:54:01.386Z,82.30
2018-04-22T06:56:30.408Z,83.10
2018-04-22T06:58:59.437Z,83.10
2018-04-22T07:01:27.444Z,83.20
2018-04-22T07:03:55.636Z,83.30
2018-04-22T07:06:23.903Z,83.80
2018-04-22T07:08:53.398Z,83.10
2018-04-22T07:11:21.632Z,83.00
2018-04-22T07:13:49.874Z,82.70
2018-04-22T07:16:18.116Z,82.00
2018-04-22T07:18:46.367Z,82.30
2018-04-22T07:21:14.601Z,81.90
2018-04-22T07:23:42.845Z,81.70
2018-04-22T07:26:10.848Z,81.80
2018-04-22T07:28:38.904Z,82.00
2018-04-22T07:31:07.080Z,81.40
2018-04-22T07:33:35.622Z,82.00
2018-04-22T07:36:04.653Z,81.00
2018-04-22T07:38:33.627Z,81.40
2018-04-22T07:41:01.930Z,81.40
2018-04-22T07:43:30.112Z,81.90
2018-04-22T07:45:58.354Z,81.40
2018-04-22T07:48:26.596Z,80.00
2018-04-22T07:50:54.837Z,80.50
2018-04-22T07:53:23.363Z,78.80
2018-04-22T07:55:51.371Z,78.20
2018-04-22T07:58:19.612Z,78.60
2018-04-22T08:00:47.857Z,78.00
2018-04-22T08:03:16.829Z,76.10
2018-04-22T08:05:45.066Z,76.00
2018-04-22T08:08:14.108Z,76.50
2018-04-22T08:10:42.400Z,76.40
2018-04-22T08:13:10.407Z,76.50
2018-04-22T08:15:38.428Z,75.10
2018-04-22T08:18:07.125Z,74.40
2018-04-22T08:20:35.367Z,73.70
2018-04-22T08:23:03.543Z,74.10
2018-04-22T08:25:32.381Z,73.30
2018-04-22T08:28:01.046Z,70.20
2018-04-22T08:30:29.321Z,70.10
2018-04-22T08:32:57.564Z,69.30
2018-04-22T08:35:25.807Z,67.40
2018-04-22T08:37:53.917Z,65.00
2018-04-22T08:40:22.094Z,63.90
2018-04-22T08:42:50.098Z,63.20
2018-04-22T08:45:18.317Z,61.70
2018-04-22T08:47:47.365Z,58.90
2018-04-22T08:50:15.653Z,58.80
2018-04-22T08:52:43.897Z,57.50
2018-04-22T08:55:12.013Z,56.30
2018-04-22T08:57:40.187Z,55.70
2018-04-22T09:00:08.372Z,56.10
2018-04-22T09:02:36.617Z,54.40
2018-04-22T09:05:04.837Z,53.40
2018-04-22T09:07:33.697Z,52.70
2018-04-22T09:10:01.596Z,52.70
2018-04-22T09:12:30.423Z,51.60
2018-04-22T09:14:58.667Z,51.60
2018-04-22T09:17:26.915Z,52.30
2018-04-22T09:19:55.155Z,50.30
2018-04-22T09:22:23.398Z,50.10
2018-04-22T09:24:52.378Z,48.50
2018-04-22T09:27:20.391Z,48.50
2018-04-22T09:29:49.254Z,45.20
2018-04-22T09:32:17.544Z,45.10
2018-04-22T09:34:45.787Z,44.50
2018-04-22T09:37:13.982Z,46.00
2018-04-22T09:39:42.270Z,46.10
2018-04-22T09:42:10.316Z,45.80
2018-04-22T09:44:38.498Z,45.70
2018-04-22T09:47:07.391Z,45.90
2018-04-22T09:49:35.635Z,45.80
2018-04-22T09:52:03.875Z,45.20
2018-04-22T09:54:32.904Z,46.60
2018-04-22T09:57:01.099Z,46.60
2018-04-22T09:59:29.244Z,47.10
2018-04-22T10:01:59.291Z,46.20
2018-04-22T10:04:29.178Z,47.20
2018-04-22T10:06:57.461Z,45.80
2018-04-22T10:09:25.632Z,45.50
2018-04-22T10:11:53.944Z,45.60
2018-04-22T10:14:22.187Z,45.60
2018-04-22T10:16:50.190Z,46.90
2018-04-22T10:19:18.473Z,46.40
2018-04-22T10:21:46.646Z,45.30
2018-04-22T10:24:15.497Z,45.90
2018-04-22T10:26:43.791Z,45.80
2018-04-22T10:29:11.836Z,45.70
2018-04-22T10:31:40.081Z,45.60
2018-04-22T10:34:08.327Z,46.40
2018-04-22T10:36:36.568Z,45.00
2018-04-22T10:39:06.576Z,44.90
2018-04-22T10:41:34.819Z,44.90
2018-04-22T10:44:03.053Z,44.00
2018-04-22T10:46:31.304Z,43.70
2018-04-22T10:48:59.492Z,43.50
2018-04-22T10:51:27.557Z,43.10
2018-04-22T10:53:55.837Z,42.50
2018-04-22T10:56:24.076Z,43.00
2018-04-22T10:58:52.257Z,43.10
2018-04-22T11:01:21.347Z,46.70
2018-04-22T11:03:49.393Z,46.70
2018-04-22T11:06:17.542Z,45.90
2018-04-22T11:08:45.684Z,46.10
2018-04-22T11:11:13.822Z,46.00
2018-04-22T11:13:41.972Z,45.80
2018-04-22T11:16:10.141Z,45.70
2018-04-22T11:18:38.929Z,43.60
2018-04-22T11:21:06.971Z,43.60
2018-04-22T11:23:35.136Z,44.20
2018-04-22T11:26:04.171Z,42.80
2018-04-22T11:28:32.351Z,42.70
2018-04-22T11:31:00.649Z,41.90
2018-04-22T11:33:28.431Z,42.70
2018-04-22T11:35:57.473Z,39.20
2018-04-22T11:38:25.711Z,39.10
2018-04-22T11:40:53.936Z,42.40
2018-04-22T11:43:22.796Z,42.10
2018-04-22T11:45:50.991Z,42.20
2018-04-22T11:48:18.777Z,37.80
2018-04-22T11:50:46.983Z,38.10
2018-04-22T11:53:15.029Z,38.10
2018-04-22T11:55:43.271Z,39.20
2018-04-22T11:58:11.302Z,44.00
2018-04-22T12:00:39.559Z,44.10
2018-04-22T12:03:07.800Z,41.90
2018-04-22T12:05:36.041Z,40.50
2018-04-22T12:08:04.275Z,40.10
2018-04-22T12:10:32.527Z,39.30
2018-04-22T12:13:00.532Z,38.70
2018-04-22T12:15:28.800Z,38.20
2018-04-22T12:17:57.058Z,39.00
2018-04-22T12:20:25.306Z,38.40
2018-04-22T12:22:54.330Z,37.60
2018-04-22T12:25:22.375Z,37.60
2018-04-22T12:27:50.616Z,36.40
2018-04-22T12:30:19.253Z,35.60
2018-04-22T12:32:47.421Z,35.80
2018-04-22T12:35:16.130Z,39.60
2018-04-22T12:37:44.373Z,39.70
2018-04-22T12:40:12.616Z,36.20
2018-04-22T12:42:40.777Z,36.70
2018-04-22T12:45:08.707Z,36.10
2018-04-22T12:47:36.902Z,36.40
2018-04-22T12:50:05.196Z,35.70
2018-04-22T12:52:33.435Z,36.60
2018-04-22T12:55:01.446Z,36.30
2018-04-22T12:57:29.723Z,37.10
2018-04-22T12:59:57.964Z,39.90
2018-04-22T13:02:27.538Z,36.70
2018-04-22T13:04:55.823Z,37.00
2018-04-22T13:07:24.069Z,35.50
2018-04-22T13:09:52.311Z,34.00
2018-04-22T13:12:20.552Z,37.40
2018-04-22T13:14:48.558Z,34.20
2018-04-22T13:17:16.843Z,33.20
2018-04-22T13:19:45.080Z,33.70
2018-04-22T13:22:13.107Z,33.80
2018-04-22T13:24:41.314Z,35.10
2018-04-22T13:27:09.559Z,33.70
2018-04-22T13:29:37.856Z,34.10
2018-04-22T13:32:06.886Z,36.40
2018-04-22T13:34:35.922Z,34.90
2018-04-22T13:37:04.202Z,34.70
2018-04-22T13:39:32.276Z,37.10
2018-04-22T13:42:00.388Z,35.00
2018-04-22T13:44:28.604Z,36.20
2018-04-22T13:46:57.521Z,34.20
2018-04-22T13:49:25.764Z,33.90
2018-04-22T13:51:53.967Z,34.90
2018-04-22T13:54:22.277Z,33.50
2018-04-22T13:56:50.488Z,36.20
2018-04-22T13:59:18.497Z,34.20
2018-04-22T14:01:46.727Z,33.10
2018-04-22T14:04:14.949Z,32.10
2018-04-22T14:06:43.993Z,32.20
2018-04-22T14:09:12.228Z,32.20
2018-04-22T14:11:41.074Z,32.20
2018-04-22T14:14:09.364Z,32.20
2018-04-22T14:16:37.609Z,32.30
2018-04-22T14:19:06.635Z,32.70
2018-04-22T14:21:34.877Z,32.70
2018-04-22T14:24:02.925Z,33.40
2018-04-22T14:26:31.165Z,34.00
2018-04-22T14:31:33.860Z,35.20
2018-04-22T14:34:01.754Z,35.60
2018-04-22T14:36:30.032Z,35.20
2018-04-22T14:38:58.387Z,35.60
2018-04-22T14:41:26.457Z,34.40
2018-04-22T14:44:06.911Z,33.40
2018-04-22T14:46:34.839Z,33.30
2018-04-22T14:49:05.991Z,34.20
2018-04-22T14:51:34.232Z,34.10
2018-04-22T14:54:02.474Z,36.80
2018-04-22T14:56:30.478Z,36.60
2018-04-22T14:58:58.761Z,34.10
2018-04-22T15:01:26.994Z,33.70
2018-04-22T15:03:55.051Z,33.50
2018-04-22T15:06:23.294Z,33.70
2018-04-22T15:08:51.536Z,33.80
2018-04-22T15:11:20.377Z,33.20
2018-04-22T15:13:48.622Z,33.80
2018-04-22T15:16:17.413Z,32.20
2018-04-22T15:18:45.619Z,32.10
2018-04-22T15:21:13.928Z,32.60
2018-04-22T15:23:42.170Z,31.80
2018-04-22T15:26:10.610Z,32.60
2018-04-22T15:28:38.656Z,33.30
2018-04-22T15:31:06.890Z,33.60
2018-04-22T15:33:35.145Z,31.80
2018-04-22T15:36:03.324Z,32.20
2018-04-22T15:38:31.192Z,33.20
2018-04-22T15:40:59.477Z,34.10
2018-04-22T15:43:27.519Z,33.70
2018-04-22T15:45:55.665Z,33.80
2018-04-22T15:48:23.815Z,33.20
2018-04-22T15:50:52.054Z,34.60
2018-04-22T15:53:20.162Z,34.60
2018-04-22T15:55:48.339Z,35.90
2018-04-22T15:58:16.589Z,38.30
2018-04-22T16:00:44.819Z,36.80
2018-04-22T16:03:13.067Z,37.40
2018-04-22T16:05:41.320Z,37.50
2018-04-22T16:08:09.497Z,39.00
2018-04-22T16:10:37.709Z,37.50
2018-04-22T16:13:05.854Z,38.00
2018-04-22T16:15:34.081Z,38.70
2018-04-22T16:18:02.323Z,38.30
2018-04-22T16:20:30.505Z,38.50
2018-04-22T16:22:58.807Z,38.50
2018-04-22T16:25:26.851Z,38.70
2018-04-22T16:27:54.980Z,38.80
2018-04-22T16:30:23.139Z,39.70
2018-04-22T16:32:51.315Z,41.30
2018-04-22T16:35:20.226Z,41.60
2018-04-22T16:37:48.458Z,41.60
2018-04-22T16:40:16.698Z,39.90
2018-04-22T16:42:44.661Z,40.30
2018-04-22T16:45:12.934Z,39.20
2018-04-22T16:47:41.626Z,39.60
2018-04-22T16:50:09.866Z,39.50
2018-04-22T16:52:38.110Z,41.50
2018-04-22T16:55:06.049Z,42.60
2018-04-22T16:57:34.140Z,41.40
2018-04-22T17:00:02.395Z,41.40
2018-04-22T17:02:30.685Z,41.20
2018-04-22T17:04:58.729Z,41.30
2018-04-22T17:07:26.973Z,41.00
2018-04-22T17:09:55.216Z,42.50
2018-04-22T17:12:23.463Z,41.20
2018-04-22T17:14:52.288Z,41.90
2018-04-22T17:17:20.554Z,41.90
2018-04-22T17:19:48.772Z,41.20
2018-04-22T17:22:16.981Z,41.40
2018-04-22T17:24:45.072Z,40.90
2018-04-22T17:27:14.089Z,41.70
2018-04-22T17:29:42.336Z,41.70
2018-04-22T17:32:10.576Z,41.60
2018-04-22T17:34:38.814Z,41.60
2018-04-22T17:37:06.819Z,42.80
2018-04-22T17:39:35.104Z,41.80
2018-04-22T17:42:03.349Z,42.40
2018-04-22T17:44:31.592Z,42.80
2018-04-22T17:46:59.769Z,42.80
2018-04-22T17:49:28.606Z,43.20
2018-04-22T17:51:56.908Z,43.20
2018-04-22T17:54:24.912Z,43.40
2018-04-22T17:56:53.083Z,42.90
2018-04-22T17:59:21.176Z,42.50
2018-04-22T18:01:50.066Z,42.90
2018-04-22T18:04:18.319Z,42.90
2018-04-22T18:06:46.556Z,43.00
2018-04-22T18:09:14.569Z,43.80
2018-04-22T18:11:42.788Z,42.90
2018-04-22T18:14:11.029Z,42.80
2018-04-22T18:16:39.326Z,42.10
2018-04-22T18:19:07.577Z,41.20
2018-04-22T18:21:36.597Z,40.40
2018-04-22T18:24:04.605Z,40.40
2018-04-22T18:26:32.887Z,41.10
2018-04-22T18:29:00.890Z,41.20
2018-04-22T18:31:29.176Z,41.60
2018-04-22T18:33:57.398Z,41.60
2018-04-22T18:36:25.462Z,42.00
2018-04-22T18:43:28.469Z,42.20
2018-04-22T18:45:56.811Z,42.80
2018-04-22T18:48:25.049Z,42.90
2018-04-22T18:50:53.247Z,42.90
2018-04-22T18:53:21.531Z,43.10
2018-04-22T18:55:49.946Z,43.30
2018-04-22T18:58:18.214Z,43.50
2018-04-22T19:00:46.587Z,43.70
2018-04-22T19:03:15.430Z,46.50
2018-04-22T19:05:43.726Z,46.50
2018-04-22T19:08:11.969Z,47.40
2018-04-22T19:10:40.211Z,48.40
2018-04-22T19:13:08.456Z,49.40
2018-04-22T19:15:37.419Z,50.70
2018-04-22T19:18:06.263Z,50.10
2018-04-22T19:20:34.501Z,50.10
2018-04-22T19:23:02.847Z,50.10
2018-04-22T19:25:31.041Z,50.30
2018-04-22T19:27:59.283Z,50.70
2018-04-22T19:30:27.525Z,51.20
2018-04-22T19:32:55.638Z,51.70
2018-04-22T19:35:23.688Z,52.30
2018-04-22T19:37:51.721Z,52.80
2018-04-22T19:40:20.128Z,53.10
2018-04-22T19:42:48.341Z,53.10
2018-04-22T19:45:16.526Z,52.30
2018-04-22T19:47:44.435Z,52.60
2018-04-22T19:50:13.231Z,52.10
2018-04-22T19:52:41.399Z,52.70
2018-04-22T19:55:09.553Z,52.30
2018-04-22T19:57:37.803Z,52.40
2018-04-22T20:02:40.767Z,53.40
2018-04-22T20:05:08.949Z,53.40
2018-04-22T20:07:37.804Z,52.90
2018-04-22T20:10:06.024Z,52.90
2018-04-22T20:12:34.864Z,52.80
2018-04-22T20:15:03.159Z,52.80
2018-04-22T20:17:31.168Z,53.70
2018-04-22T20:19:59.448Z,53.60
2018-04-22T20:22:27.692Z,54.00
2018-04-22T20:24:55.877Z,53.90
2018-04-22T20:27:24.175Z,54.00
2018-04-22T20:29:52.411Z,54.10
2018-04-22T20:32:20.624Z,54.50
2018-04-22T20:34:48.845Z,54.60
2018-04-22T20:37:17.073Z,54.90
2018-04-22T20:39:45.860Z,55.30
2018-04-22T20:42:14.217Z,55.20
2018-04-22T20:44:42.461Z,55.70
2018-04-22T20:47:10.631Z,56.00
2018-04-22T20:49:39.499Z,56.50
2018-04-22T20:52:07.717Z,56.50
2018-04-22T20:54:36.416Z,57.20
2018-04-22T20:57:04.418Z,57.20
2018-04-22T20:59:32.700Z,57.50
2018-04-22T21:02:00.946Z,57.80
2018-04-22T21:04:29.179Z,58.10
2018-04-22T21:06:58.217Z,58.70
2018-04-22T21:09:26.457Z,58.70
2018-04-22T21:11:54.700Z,59.20
2018-04-22T21:14:22.745Z,59.80
2018-04-22T21:16:50.896Z,60.60
2018-04-22T21:19:18.936Z,60.90
2018-04-22T21:21:46.885Z,61.40
2018-04-22T21:24:15.120Z,62.00
2018-04-22T21:26:43.134Z,62.40
2018-04-22T21:29:11.329Z,63.60
2018-04-22T21:31:40.202Z,64.50
2018-04-22T21:34:08.252Z,64.40
2018-04-22T21:36:36.537Z,64.10
2018-04-22T21:39:04.930Z,64.50
2018-04-22T21:41:33.215Z,64.30
2018-04-22T21:44:01.384Z,64.50
2018-04-22T21:46:30.223Z,65.00
2018-04-22T21:48:59.216Z,65.20
2018-04-22T21:51:27.364Z,65.10
2018-04-22T21:53:55.476Z,65.30
2018-04-22T21:56:23.458Z,65.30
2018-04-22T21:58:51.585Z,64.90
2018-04-22T22:01:19.677Z,65.50
2018-04-22T22:03:48.624Z,67.20
2018-04-22T22:06:16.816Z,67.30
2018-04-22T22:08:45.058Z,66.90
2018-04-22T22:11:13.223Z,68.90
2018-04-22T22:13:42.066Z,70.40
2018-04-22T22:16:10.833Z,70.80
2018-04-22T22:18:38.957Z,70.70
2018-04-22T22:21:07.118Z,70.30
2018-04-22T22:23:35.298Z,69.90
2018-04-22T22:26:04.327Z,70.60
2018-04-22T22:28:32.468Z,69.80
2018-04-22T22:31:00.560Z,69.90
2018-04-22T22:33:28.778Z,69.50
2018-04-22T22:35:57.644Z,69.90
2018-04-22T22:38:25.939Z,69.80
2018-04-22T22:40:54.172Z,69.90
2018-04-22T22:43:22.186Z,69.70
2018-04-22T22:45:50.390Z,71.30
2018-04-22T22:48:19.431Z,73.20
2018-04-22T22:50:47.736Z,73.20
2018-04-22T22:53:16.761Z,73.20
2018-04-22T22:55:45.008Z,73.20
2018-04-22T22:58:13.797Z,74.60
2018-04-22T23:00:41.980Z,74.50
2018-04-22T23:03:10.060Z,74.50
2018-04-22T23:05:39.077Z,75.10
2018-04-22T23:08:07.984Z,75.10
2018-04-22T23:10:36.006Z,75.10
2018-04-22T23:13:04.627Z,75.60
2018-04-22T23:15:32.906Z,76.30
2018-04-22T23:18:01.150Z,76.20
2018-04-22T23:20:29.392Z,78.70
2018-04-22T23:22:57.634Z,78.20
2018-04-22T23:25:25.876Z,77.20
2018-04-22T23:27:54.118Z,77.90
2018-04-22T23:30:22.349Z,78.30
2018-04-22T23:32:50.604Z,76.80
2018-04-22T23:35:18.784Z,75.10
2018-04-22T23:37:47.625Z,76.70
2018-04-22T23:40:15.684Z,76.70
2018-04-22T23:42:43.965Z,78.30
2018-04-22T23:45:12.014Z,79.20
2018-04-22T23:47:40.260Z,79.30
2018-04-22T23:50:08.499Z,80.30
2018-04-22T23:52:36.737Z,79.90
2018-04-22T23:55:04.989Z,78.10
2018-04-22T23:57:33.914Z,76.40
